createdAt,value
2017-10-01T00:00:50.193Z,10.60
2017-10-01T00:03:16.547Z,10.67
2017-10-01T00:05:42.866Z,10.73
2017-10-01T00:08:09.831Z,10.82
2017-10-01T00:10:36.263Z,10.90
2017-10-01T00:13:02.492Z,10.91
2017-10-01T00:15:28.826Z,10.83
2017-10-01T00:17:55.461Z,10.66
2017-10-01T00:20:21.680Z,10.63
2017-10-01T00:22:47.907Z,10.56
2017-10-01T00:25:14.158Z,10.50
2017-10-01T00:27:40.392Z,10.59
2017-10-01T00:30:06.722Z,10.50
2017-10-01T00:32:33.039Z,10.46
2017-10-01T00:34:59.278Z,10.44
2017-10-01T00:37:25.599Z,10.44
2017-10-01T00:39:51.833Z,10.50
2017-10-01T00:42:18.467Z,10.55
2017-10-01T00:44:44.704Z,10.58
2017-10-01T00:47:11.056Z,10.62
2017-10-01T00:49:37.368Z,10.58
2017-10-01T00:52:03.750Z,10.66
2017-10-01T00:54:30.031Z,10.74
2017-10-01T00:56:56.398Z,10.74
2017-10-01T00:59:22.593Z,10.74
2017-10-01T01:01:48.913Z,10.72
2017-10-01T01:04:15.998Z,10.80
2017-10-01T01:06:42.311Z,10.84
2017-10-01T01:09:08.639Z,10.90
2017-10-01T01:11:34.978Z,10.98
2017-10-01T01:14:01.206Z,10.98
2017-10-01T01:16:27.846Z,11.02
2017-10-01T01:18:54.385Z,10.99
2017-10-01T01:21:20.711Z,10.87
2017-10-01T01:23:47.566Z,10.87
2017-10-01T01:26:13.991Z,10.92
2017-10-01T01:28:40.323Z,10.92
2017-10-01T01:31:06.550Z,10.95
2017-10-01T01:33:32.883Z,10.96
2017-10-01T01:35:59.202Z,11.00
2017-10-01T01:38:25.433Z,11.00
2017-10-01T01:40:51.766Z,11.02
2017-10-01T01:43:17.998Z,10.89
2017-10-01T01:45:44.341Z,10.75
2017-10-01T01:48:10.672Z,10.76
2017-10-01T01:50:36.904Z,10.84
2017-10-01T01:53:03.131Z,10.86
2017-10-01T01:55:29.684Z,10.84
2017-10-01T01:57:56.988Z,10.82
2017-10-01T02:00:23.256Z,10.79
2017-10-01T02:02:50.511Z,10.78
2017-10-01T02:05:16.842Z,10.76
2017-10-01T02:07:43.464Z,10.68
2017-10-01T02:10:09.812Z,10.64
2017-10-01T02:12:36.028Z,10.59
2017-10-01T02:15:02.281Z,10.50
2017-10-01T02:17:28.501Z,10.49
2017-10-01T02:19:54.934Z,10.52
2017-10-01T02:22:21.148Z,10.52
2017-10-01T02:24:47.384Z,10.66
2017-10-01T02:27:13.714Z,10.68
2017-10-01T02:29:39.955Z,10.65
2017-10-01T02:32:06.186Z,10.76
2017-10-01T02:34:32.420Z,10.68
2017-10-01T02:36:58.733Z,10.54
2017-10-01T02:39:24.978Z,10.52
2017-10-01T02:41:52.030Z,10.58
2017-10-01T02:44:18.358Z,10.60
2017-10-01T02:46:44.702Z,10.61
2017-10-01T02:49:10.935Z,10.70
2017-10-01T02:51:37.374Z,10.77
2017-10-01T02:54:03.692Z,10.71
2017-10-01T02:56:30.241Z,10.73
2017-10-01T02:58:56.859Z,10.74
2017-10-01T03:01:23.102Z,10.55
2017-10-01T03:03:49.532Z,10.56
2017-10-01T03:06:15.974Z,10.57
2017-10-01T03:08:42.718Z,10.69
2017-10-01T03:11:09.138Z,10.65
2017-10-01T03:13:35.368Z,10.63
2017-10-01T03:16:01.695Z,10.63
2017-10-01T03:18:28.042Z,10.75
2017-10-01T03:20:54.382Z,10.75
2017-10-01T03:23:20.927Z,10.69
2017-10-01T03:25:47.436Z,10.67
2017-10-01T03:28:13.673Z,10.73
2017-10-01T03:30:40.001Z,10.69
2017-10-01T03:33:06.329Z,10.69
2017-10-01T03:35:32.660Z,10.68
2017-10-01T03:37:58.996Z,10.61
2017-10-01T03:40:25.321Z,10.40
2017-10-01T03:42:51.668Z,10.50
2017-10-01T03:45:17.884Z,10.46
2017-10-01T03:47:44.121Z,10.45
2017-10-01T03:50:10.453Z,10.46
2017-10-01T03:52:36.970Z,10.54
2017-10-01T03:55:03.727Z,10.58
2017-10-01T03:57:30.064Z,10.63
2017-10-01T03:59:56.386Z,10.63
2017-10-01T04:02:22.730Z,10.56
2017-10-01T04:04:48.951Z,10.47
2017-10-01T04:07:15.400Z,10.49
2017-10-01T04:09:42.117Z,10.58
2017-10-01T04:12:08.350Z,10.64
2017-10-01T04:14:34.600Z,10.76
2017-10-01T04:17:01.223Z,10.62
2017-10-01T04:19:27.681Z,10.70
2017-10-01T04:21:54.394Z,10.72
2017-10-01T04:24:20.843Z,10.75
2017-10-01T04:26:47.175Z,10.77
2017-10-01T04:29:13.409Z,10.76
2017-10-01T04:31:39.727Z,10.79
2017-10-01T04:34:06.353Z,10.79
2017-10-01T04:36:32.590Z,10.75
2017-10-01T04:38:58.944Z,10.78
2017-10-01T04:41:25.153Z,10.74
2017-10-01T04:43:51.814Z,10.75
2017-10-01T04:46:18.144Z,10.84
2017-10-01T04:48:44.658Z,10.90
2017-10-01T04:51:10.905Z,10.99
2017-10-01T04:53:37.347Z,11.05
2017-10-01T04:56:03.966Z,11.08
2017-10-01T04:58:30.934Z,11.15
2017-10-01T05:00:57.361Z,11.19
2017-10-01T05:03:23.701Z,11.19
2017-10-01T05:05:50.336Z,11.22
2017-10-01T05:08:16.651Z,11.19
2017-10-01T05:10:42.989Z,11.29
2017-10-01T05:13:09.231Z,11.33
2017-10-01T05:15:35.759Z,11.33
2017-10-01T05:18:02.194Z,11.40
2017-10-01T05:20:28.423Z,11.48
2017-10-01T05:22:54.975Z,11.64
2017-10-01T05:25:21.189Z,11.74
2017-10-01T05:27:47.625Z,11.78
2017-10-01T05:30:14.072Z,11.80
2017-10-01T05:32:41.203Z,11.80
2017-10-01T05:35:07.448Z,11.83
2017-10-01T05:37:33.663Z,11.85
2017-10-01T05:40:00.006Z,11.82
2017-10-01T05:42:26.427Z,11.73
2017-10-01T05:44:52.982Z,11.75
2017-10-01T05:47:19.293Z,11.86
2017-10-01T05:49:45.636Z,11.89
2017-10-01T05:52:11.888Z,11.93
2017-10-01T05:54:38.300Z,12.00
2017-10-01T05:57:04.626Z,11.88
2017-10-01T05:59:31.053Z,11.90
2017-10-01T06:01:57.307Z,12.05
2017-10-01T06:04:23.637Z,12.09
2017-10-01T06:06:49.970Z,12.17
2017-10-01T06:09:16.912Z,12.28
2017-10-01T06:11:43.156Z,12.18
2017-10-01T06:14:09.571Z,12.20
2017-10-01T06:16:35.903Z,12.17
2017-10-01T06:19:02.257Z,12.16
2017-10-01T06:21:28.462Z,12.39
2017-10-01T06:23:54.716Z,12.35
2017-10-01T06:26:21.035Z,12.38
2017-10-01T06:28:47.559Z,12.55
2017-10-01T06:31:13.843Z,12.42
2017-10-01T06:33:40.257Z,12.44
2017-10-01T06:36:06.965Z,12.50
2017-10-01T06:38:33.313Z,12.37
2017-10-01T06:40:59.967Z,12.39
2017-10-01T06:43:26.425Z,12.37
2017-10-01T06:45:53.125Z,12.13
2017-10-01T06:48:19.474Z,12.24
2017-10-01T06:50:45.787Z,12.30
2017-10-01T06:53:12.116Z,12.17
2017-10-01T06:55:38.859Z,12.16
2017-10-01T06:58:07.549Z,12.23
2017-10-01T07:00:33.989Z,12.16
2017-10-01T07:03:00.342Z,12.10
2017-10-01T07:05:26.776Z,12.28
2017-10-01T07:07:53.181Z,12.39
2017-10-01T07:10:19.410Z,12.39
2017-10-01T07:12:45.753Z,12.56
2017-10-01T07:15:12.070Z,12.63
2017-10-01T07:17:38.513Z,12.69
2017-10-01T07:20:07.534Z,12.71
2017-10-01T07:22:33.920Z,12.67
2017-10-01T07:25:00.579Z,12.66
2017-10-01T07:27:27.135Z,12.65
2017-10-01T07:29:53.468Z,12.57
2017-10-01T07:32:20.020Z,12.49
2017-10-01T07:34:47.021Z,12.40
2017-10-01T07:37:13.785Z,12.47
2017-10-01T07:39:40.108Z,12.66
2017-10-01T07:42:06.679Z,12.70
2017-10-01T07:44:33.696Z,12.64
2017-10-01T07:47:00.238Z,12.89
2017-10-01T07:49:26.575Z,13.19
2017-10-01T07:51:53.214Z,13.41
2017-10-01T07:54:19.539Z,13.66
2017-10-01T07:56:45.881Z,13.86
2017-10-01T07:59:12.518Z,14.12
2017-10-01T08:01:38.887Z,14.13
2017-10-01T08:04:06.197Z,14.30
2017-10-01T08:06:33.055Z,14.48
2017-10-01T08:08:59.370Z,14.46
2017-10-01T08:11:25.936Z,14.47
2017-10-01T08:13:52.107Z,14.70
2017-10-01T08:16:18.389Z,14.97
2017-10-01T08:18:44.804Z,15.18
2017-10-01T08:21:11.139Z,15.45
2017-10-01T08:23:37.462Z,15.65
2017-10-01T08:26:03.803Z,15.25
2017-10-01T08:28:30.149Z,15.34
2017-10-01T08:30:56.886Z,15.69
2017-10-01T08:33:26.543Z,15.86
2017-10-01T08:35:52.912Z,15.75
2017-10-01T08:38:19.474Z,15.72
2017-10-01T08:40:45.695Z,16.27
2017-10-01T08:43:13.136Z,16.63
2017-10-01T08:45:39.485Z,16.84
2017-10-01T08:48:05.699Z,16.63
2017-10-01T08:50:32.649Z,16.38
2017-10-01T08:52:58.982Z,16.47
2017-10-01T08:55:27.639Z,16.94
2017-10-01T08:57:54.579Z,17.00
2017-10-01T09:00:21.056Z,17.17
2017-10-01T09:02:47.390Z,16.92
2017-10-01T09:05:14.011Z,17.20
2017-10-01T09:07:40.340Z,17.46
2017-10-01T09:10:06.710Z,16.89
2017-10-01T09:12:32.933Z,17.42
2017-10-01T09:14:59.902Z,17.66
2017-10-01T09:17:26.092Z,18.22
2017-10-01T09:19:52.436Z,18.48
2017-10-01T09:22:18.784Z,18.49
2017-10-01T09:24:45.204Z,18.67
2017-10-01T09:27:11.416Z,18.86
2017-10-01T09:29:37.868Z,18.82
2017-10-01T09:32:04.302Z,18.99
2017-10-01T09:34:30.633Z,19.28
2017-10-01T09:36:58.002Z,19.26
2017-10-01T09:39:24.734Z,19.28
2017-10-01T09:41:51.357Z,19.64
2017-10-01T09:44:17.670Z,20.28
2017-10-01T09:46:45.254Z,20.37
2017-10-01T09:49:11.781Z,20.71
2017-10-01T09:51:38.144Z,21.07
2017-10-01T09:54:05.091Z,20.38
2017-10-01T09:56:31.509Z,19.36
2017-10-01T09:58:58.143Z,19.82
2017-10-01T10:01:24.377Z,19.55
2017-10-01T10:03:50.923Z,19.12
2017-10-01T10:06:18.084Z,19.39
2017-10-01T10:08:44.397Z,19.40
2017-10-01T10:11:11.037Z,18.82
2017-10-01T10:13:37.568Z,19.31
2017-10-01T10:16:04.518Z,19.11
2017-10-01T10:18:30.985Z,18.75
2017-10-01T10:20:57.285Z,18.99
2017-10-01T10:23:24.249Z,19.28
2017-10-01T10:25:50.556Z,19.62
2017-10-01T10:28:16.873Z,19.06
2017-10-01T10:30:43.550Z,18.31
2017-10-01T10:33:09.870Z,18.56
2017-10-01T10:35:36.082Z,19.00
2017-10-01T10:38:02.424Z,19.10
2017-10-01T10:40:28.859Z,19.55
2017-10-01T10:42:55.603Z,20.62
2017-10-01T10:45:21.941Z,20.63
2017-10-01T10:47:55.056Z,20.98
2017-10-01T10:50:21.494Z,20.57
2017-10-01T10:52:48.500Z,20.71
2017-10-01T10:55:14.857Z,21.11
2017-10-01T10:57:42.804Z,21.39
2017-10-01T11:00:10.285Z,20.72
2017-10-01T11:02:36.558Z,20.46
2017-10-01T11:05:02.858Z,20.88
2017-10-01T11:07:39.870Z,21.11
2017-10-01T11:10:06.146Z,20.74
2017-10-01T11:12:32.701Z,20.05
2017-10-01T11:14:59.451Z,19.85
2017-10-01T11:17:26.473Z,20.24
2017-10-01T11:19:53.114Z,20.97
2017-10-01T11:22:20.878Z,21.10
2017-10-01T11:24:47.667Z,19.86
2017-10-01T11:27:13.968Z,20.01
2017-10-01T11:29:40.493Z,19.82
2017-10-01T11:32:07.338Z,19.60
2017-10-01T11:34:33.564Z,20.16
2017-10-01T11:36:59.993Z,19.92
2017-10-01T11:39:26.326Z,19.90
2017-10-01T11:41:52.714Z,19.65
2017-10-01T11:44:18.995Z,20.25
2017-10-01T11:46:45.557Z,20.24
2017-10-01T11:49:12.702Z,20.83
2017-10-01T11:51:39.038Z,20.96
2017-10-01T11:54:05.385Z,21.56
2017-10-01T11:56:32.104Z,21.67
2017-10-01T11:58:58.932Z,21.23
2017-10-01T12:01:25.289Z,20.53
2017-10-01T12:03:51.595Z,20.18
2017-10-01T12:06:17.922Z,20.06
2017-10-01T12:08:44.245Z,20.16
2017-10-01T12:11:10.578Z,20.33
2017-10-01T12:13:37.041Z,20.45
2017-10-01T12:16:04.595Z,20.70
2017-10-01T12:18:30.929Z,21.03
2017-10-01T12:20:57.252Z,22.20
2017-10-01T12:23:24.304Z,23.11
2017-10-01T12:25:51.775Z,23.08
2017-10-01T12:28:17.985Z,22.80
2017-10-01T12:30:44.329Z,22.84
2017-10-01T12:33:11.476Z,22.23
2017-10-01T12:35:37.906Z,21.27
2017-10-01T12:38:05.173Z,21.63
2017-10-01T12:40:32.107Z,20.89
2017-10-01T12:42:58.517Z,20.45
2017-10-01T12:45:24.869Z,20.93
2017-10-01T12:47:51.503Z,21.33
2017-10-01T12:50:18.463Z,20.70
2017-10-01T12:52:45.106Z,20.34
2017-10-01T12:55:11.944Z,21.04
2017-10-01T12:57:38.352Z,21.40
2017-10-01T13:00:05.439Z,21.46
2017-10-01T13:02:31.763Z,21.85
2017-10-01T13:04:58.103Z,22.07
2017-10-01T13:07:24.347Z,21.61
2017-10-01T13:09:51.793Z,21.56
2017-10-01T13:12:18.114Z,21.82
2017-10-01T13:14:45.483Z,21.75
2017-10-01T13:17:23.968Z,22.06
2017-10-01T13:19:50.302Z,22.32
2017-10-01T13:22:16.755Z,22.30
2017-10-01T13:24:43.085Z,21.39
2017-10-01T13:27:10.041Z,21.84
2017-10-01T13:29:36.634Z,22.49
2017-10-01T13:32:04.762Z,22.81
2017-10-01T13:34:33.331Z,22.80
2017-10-01T13:36:59.662Z,22.39
2017-10-01T13:39:26.001Z,22.08
2017-10-01T13:41:54.178Z,22.20
2017-10-01T13:44:21.332Z,22.73
2017-10-01T13:46:47.583Z,22.54
2017-10-01T13:49:13.976Z,22.09
2017-10-01T13:51:40.427Z,21.39
2017-10-01T13:54:06.672Z,20.58
2017-10-01T13:56:33.115Z,20.06
2017-10-01T13:58:59.886Z,19.47
2017-10-01T14:01:26.427Z,19.18
2017-10-01T14:03:52.703Z,18.54
2017-10-01T14:06:19.671Z,18.28
2017-10-01T14:08:48.457Z,17.85
2017-10-01T14:11:14.989Z,17.49
2017-10-01T14:13:42.336Z,17.30
2017-10-01T14:16:10.032Z,17.18
2017-10-01T14:18:38.128Z,17.24
2017-10-01T14:21:04.413Z,17.23
2017-10-01T14:23:30.752Z,17.25
2017-10-01T14:25:58.483Z,17.27
2017-10-01T14:28:24.895Z,17.41
2017-10-01T14:30:51.149Z,17.23
2017-10-01T14:33:18.054Z,16.94
2017-10-01T14:35:44.311Z,17.06
2017-10-01T14:38:10.541Z,17.26
2017-10-01T14:40:36.786Z,17.33
2017-10-01T14:43:03.141Z,17.25
2017-10-01T14:45:29.907Z,17.15
2017-10-01T14:47:56.212Z,16.90
2017-10-01T14:50:22.558Z,16.86
2017-10-01T14:52:49.064Z,16.87
2017-10-01T14:55:15.931Z,16.92
2017-10-01T14:57:42.231Z,16.87
2017-10-01T15:00:08.834Z,16.90
2017-10-01T15:02:35.388Z,16.64
2017-10-01T15:05:02.365Z,16.70
2017-10-01T15:07:29.009Z,16.91
2017-10-01T15:09:56.913Z,16.95
2017-10-01T15:12:23.237Z,16.97
2017-10-01T15:14:49.503Z,16.87
2017-10-01T15:17:18.064Z,16.72
2017-10-01T15:19:44.913Z,16.78
2017-10-01T15:22:11.215Z,16.83
2017-10-01T15:24:37.556Z,16.75
2017-10-01T15:27:03.939Z,16.65
2017-10-01T15:29:30.532Z,16.55
2017-10-01T15:31:57.204Z,16.47
2017-10-01T15:34:24.397Z,16.45
2017-10-01T15:36:51.442Z,16.31
2017-10-01T15:39:17.756Z,16.21
2017-10-01T15:41:43.979Z,16.18
2017-10-01T15:44:10.640Z,16.07
2017-10-01T15:46:36.972Z,15.98
2017-10-01T15:49:07.217Z,15.98
2017-10-01T15:51:33.513Z,15.75
2017-10-01T15:54:01.454Z,15.64
2017-10-01T15:56:27.783Z,15.58
2017-10-01T16:04:11.316Z,15.40
2017-10-01T16:06:37.877Z,15.14
2017-10-01T16:09:05.036Z,15.10
2017-10-01T16:11:31.670Z,15.08
2017-10-01T16:13:57.867Z,14.79
2017-10-01T16:16:30.569Z,14.70
2017-10-01T16:18:57.450Z,14.48
2017-10-01T16:21:25.429Z,14.45
2017-10-01T16:23:52.662Z,14.41
2017-10-01T16:26:31.880Z,14.26
2017-10-01T16:28:58.369Z,14.13
2017-10-01T16:31:25.144Z,13.98
2017-10-01T16:34:02.246Z,13.69
2017-10-01T16:36:28.540Z,13.65
2017-10-01T16:38:54.883Z,13.58
2017-10-01T16:41:22.183Z,13.43
2017-10-01T16:43:50.034Z,13.37
2017-10-01T16:46:16.920Z,13.32
2017-10-01T16:48:43.220Z,13.22
2017-10-01T16:51:09.609Z,13.14
2017-10-01T16:53:36.235Z,13.01
2017-10-01T16:56:06.232Z,12.83
2017-10-01T16:58:33.246Z,12.66
2017-10-01T17:00:59.557Z,12.59
2017-10-01T17:03:27.816Z,12.49
2017-10-01T17:05:55.861Z,12.54
2017-10-01T17:08:23.300Z,12.54
2017-10-01T17:10:49.703Z,12.47
2017-10-01T17:21:11.486Z,12.04
2017-10-01T17:31:35.184Z,11.74
2017-10-01T17:34:03.178Z,11.62
2017-10-01T17:36:31.272Z,11.51
2017-10-01T17:38:58.535Z,11.57
2017-10-01T17:41:24.958Z,11.54
2017-10-01T17:46:30.350Z,11.27
2017-10-01T17:48:58.789Z,11.21
2017-10-01T17:51:31.501Z,11.18
2017-10-01T17:53:58.091Z,11.25
2017-10-01T17:56:29.441Z,11.19
2017-10-01T17:58:55.795Z,11.08
2017-10-01T18:01:25.459Z,11.05
2017-10-01T18:03:52.879Z,11.03
2017-10-01T18:06:22.290Z,10.92
2017-10-01T18:08:53.137Z,10.96
2017-10-01T18:11:22.138Z,11.05
2017-10-01T18:13:49.359Z,11.11
2017-10-01T18:16:17.094Z,10.96
2017-10-01T18:18:43.444Z,10.89
2017-10-01T18:21:10.914Z,10.82
2017-10-01T18:23:39.430Z,10.76
2017-10-01T18:26:05.830Z,10.36
2017-10-01T18:28:32.564Z,10.38
2017-10-01T18:30:58.803Z,10.36
2017-10-01T18:33:32.852Z,10.43
2017-10-01T18:36:03.873Z,10.45
2017-10-01T18:38:31.810Z,10.40
2017-10-01T18:41:01.190Z,10.40
2017-10-01T18:43:27.510Z,10.33
2017-10-01T18:45:54.222Z,10.29
2017-10-01T18:48:22.375Z,10.30
2017-10-01T18:50:54.869Z,10.24
2017-10-01T18:53:22.109Z,10.09
2017-10-01T18:55:49.022Z,10.01
2017-10-01T18:58:18.563Z,10.00
2017-10-01T19:00:47.467Z,9.84
2017-10-01T19:03:16.407Z,9.76
2017-10-01T19:05:43.429Z,9.82
2017-10-01T19:08:09.949Z,9.80
2017-10-01T19:10:37.802Z,9.80
2017-10-01T19:13:04.505Z,9.76
2017-10-01T19:15:31.481Z,9.81
2017-10-01T19:17:57.995Z,9.82
2017-10-01T19:20:30.154Z,9.78
2017-10-01T19:22:58.075Z,9.73
2017-10-01T19:25:25.607Z,9.67
2017-10-01T19:27:51.971Z,9.82
2017-10-01T19:30:22.254Z,9.87
2017-10-01T19:35:39.243Z,9.76
2017-10-01T19:40:53.574Z,9.62
2017-10-01T20:09:46.388Z,9.21
2017-10-01T20:20:07.737Z,9.08
2017-10-01T20:22:35.048Z,9.04
2017-10-01T20:25:02.413Z,9.00
2017-10-01T20:27:28.711Z,8.94
2017-10-01T20:29:58.908Z,8.96
2017-10-01T20:32:25.491Z,8.92
2017-10-01T20:34:56.657Z,8.88
2017-10-01T20:37:22.862Z,8.72
2017-10-01T20:39:49.061Z,8.67
2017-10-01T20:42:23.089Z,8.63
2017-10-01T20:44:53.827Z,8.67
2017-10-01T20:47:22.225Z,8.71
2017-10-01T20:49:50.926Z,8.72
2017-10-01T20:52:18.174Z,8.80
2017-10-01T20:54:55.455Z,8.67
2017-10-01T20:57:21.732Z,8.64
2017-10-01T20:59:55.901Z,8.68
2017-10-01T21:02:27.067Z,8.61
2017-10-01T21:04:55.323Z,8.46
2017-10-01T21:07:22.264Z,8.41
2017-10-01T21:09:54.752Z,8.43
2017-10-01T21:12:21.500Z,8.44
2017-10-01T21:14:51.812Z,8.35
2017-10-01T21:17:18.103Z,8.28
2017-10-01T21:19:46.091Z,8.25
2017-10-01T21:22:12.810Z,8.16
2017-10-01T21:24:39.148Z,8.24
2017-10-01T21:27:06.252Z,8.19
2017-10-01T21:29:34.460Z,8.15
2017-10-01T21:32:04.418Z,8.08
2017-10-01T21:34:30.686Z,8.04
2017-10-01T21:36:58.345Z,8.01
2017-10-01T21:39:24.634Z,7.95
2017-10-01T21:41:50.982Z,7.94
2017-10-01T21:44:18.502Z,7.98
2017-10-01T21:46:45.095Z,8.07
2017-10-01T21:49:15.632Z,8.08
2017-10-01T21:51:42.862Z,8.12
2017-10-01T21:54:09.203Z,8.11
2017-10-01T21:56:39.643Z,8.01
2017-10-01T21:59:07.493Z,7.95
2017-10-01T22:01:33.719Z,7.98
2017-10-01T22:04:02.130Z,7.83
2017-10-01T22:06:29.046Z,7.88
2017-10-01T22:08:59.577Z,7.86
2017-10-01T22:11:35.124Z,7.71
2017-10-01T22:14:01.426Z,7.69
2017-10-01T22:16:27.686Z,7.60
2017-10-01T22:18:57.503Z,7.56
2017-10-01T22:21:23.811Z,7.55
2017-10-01T22:23:51.305Z,7.49
2017-10-01T22:26:19.254Z,7.40
2017-10-01T22:28:47.614Z,7.47
2017-10-01T22:31:14.611Z,7.59
2017-10-01T22:33:41.088Z,7.66
2017-10-01T22:36:07.293Z,7.47
2017-10-01T22:38:34.180Z,7.43
2017-10-01T22:41:06.172Z,7.39
2017-10-01T22:43:36.008Z,7.38
2017-10-01T22:46:06.021Z,7.35
2017-10-01T22:48:32.943Z,7.29
2017-10-01T22:51:02.715Z,7.23
2017-10-01T22:53:37.575Z,7.13
2017-10-01T22:56:04.551Z,7.12
2017-10-01T22:58:30.795Z,7.15
2017-10-01T23:00:57.420Z,7.17
2017-10-01T23:03:27.941Z,7.14
2017-10-01T23:05:56.287Z,7.12
2017-10-01T23:08:24.805Z,7.02
2017-10-01T23:10:59.343Z,7.04
2017-10-01T23:13:27.618Z,7.03
2017-10-01T23:15:57.924Z,6.98
2017-10-01T23:18:24.159Z,6.92
2017-10-01T23:20:50.994Z,6.87
2017-10-01T23:23:21.235Z,6.77
2017-10-01T23:25:50.039Z,6.78
2017-10-01T23:28:17.188Z,6.93
2017-10-01T23:30:50.273Z,6.89
2017-10-01T23:33:17.674Z,6.76
2017-10-01T23:35:45.275Z,6.65
2017-10-01T23:38:13.677Z,6.62
2017-10-01T23:40:40.187Z,6.63
2017-10-01T23:43:06.925Z,6.60
2017-10-01T23:45:36.963Z,6.60
2017-10-01T23:48:08.716Z,6.57
2017-10-01T23:50:35.776Z,6.68
2017-10-01T23:53:03.898Z,6.65
2017-10-01T23:55:31.820Z,6.49
2017-10-01T23:57:59.283Z,6.51
